createdAt,value
2023-01-09T00:01:55.429Z,98694.38
2023-01-09T00:04:21.835Z,98688.56
2023-01-09T00:06:53.925Z,98676.66
2023-01-09T00:09:21.692Z,98683.53
2023-01-09T00:11:48.707Z,98683.53
2023-01-09T00:14:18.909Z,98684.34
2023-01-09T00:16:45.491Z,98691.13
2023-01-09T00:19:12.053Z,98689.69
2023-01-09T00:21:38.453Z,98687.16
2023-01-09T00:24:05.228Z,98688.19
2023-01-09T00:26:31.635Z,98686.81
2023-01-09T00:28:58.297Z,98693.91
2023-01-09T00:31:24.720Z,98691.34
2023-01-09T00:33:54.098Z,98690.94
2023-01-09T00:36:20.529Z,98686.78
2023-01-09T00:38:46.922Z,98689.50
2023-01-09T00:41:19.103Z,98690.94
2023-01-09T00:43:46.452Z,98699.25
2023-01-09T00:46:13.801Z,98698.94
2023-01-09T00:48:42.095Z,98707.22
2023-01-09T00:51:08.513Z,98694.50
2023-01-09T00:53:37.771Z,98705.69
2023-01-09T00:56:07.386Z,98705.81
2023-01-09T00:58:34.365Z,98704.72
2023-01-09T01:01:01.171Z,98702.94
2023-01-09T01:03:27.832Z,98703.56
2023-01-09T01:06:12.708Z,98709.50
2023-01-09T01:08:39.114Z,98711.44
2023-01-09T01:11:10.051Z,98706.19
2023-01-09T01:13:37.715Z,98723.16
2023-01-09T01:16:05.692Z,98731.41
2023-01-09T01:18:32.124Z,98730.88
2023-01-09T01:20:58.611Z,98719.78
2023-01-09T01:23:25.128Z,98727.97
2023-01-09T01:25:51.657Z,98726.44
2023-01-09T01:28:19.158Z,98727.53
2023-01-09T01:30:45.633Z,98720.09
2023-01-09T01:33:12.076Z,98726.75
2023-01-09T01:35:38.663Z,98722.94
2023-01-09T01:38:05.192Z,98723.72
2023-01-09T01:40:31.578Z,98724.38
2023-01-09T01:42:58.732Z,98727.22
2023-01-09T01:45:29.516Z,98725.94
2023-01-09T01:48:08.001Z,98721.03
2023-01-09T01:50:38.578Z,98719.19
2023-01-09T01:53:33.324Z,98716.38
2023-01-09T01:56:06.465Z,98726.94
2023-01-09T01:58:34.719Z,98725.00
2023-01-09T02:01:01.315Z,98720.56
2023-01-09T02:03:28.502Z,98724.28
2023-01-09T02:05:54.896Z,98734.50
2023-01-09T02:08:21.789Z,98742.22
2023-01-09T02:10:49.154Z,98746.72
2023-01-09T02:13:15.615Z,98748.59
2023-01-09T02:16:03.214Z,98748.50
2023-01-09T02:18:32.120Z,98745.47
2023-01-09T02:21:03.348Z,98745.38
2023-01-09T02:23:48.358Z,98741.94
2023-01-09T02:27:13.214Z,98745.03
2023-01-09T02:30:16.345Z,98745.50
2023-01-09T02:32:51.462Z,98751.31
2023-01-09T02:35:27.779Z,98751.41
2023-01-09T02:38:16.159Z,98747.25
2023-01-09T02:41:21.449Z,98757.19
2023-01-09T02:43:47.835Z,98755.06
2023-01-09T02:46:19.910Z,98759.84
2023-01-09T02:48:46.692Z,98750.31
2023-01-09T02:51:22.036Z,98745.50
2023-01-09T02:54:13.647Z,98757.41
2023-01-09T02:57:00.917Z,98749.47
2023-01-09T02:59:29.494Z,98753.66
2023-01-09T03:02:20.791Z,98751.19
2023-01-09T03:04:57.578Z,98743.38
2023-01-09T03:07:30.980Z,98743.38
2023-01-09T03:10:15.660Z,98752.50
2023-01-09T03:12:43.118Z,98755.88
2023-01-09T03:15:12.295Z,98753.75
2023-01-09T03:17:42.480Z,98752.78
2023-01-09T03:20:10.523Z,98754.53
2023-01-09T03:22:39.891Z,98763.69
2023-01-09T03:25:06.542Z,98762.44
2023-01-09T03:27:32.919Z,98778.91
2023-01-09T03:29:59.315Z,98779.34
2023-01-09T03:32:27.671Z,98786.44
2023-01-09T03:34:54.118Z,98791.41
2023-01-09T03:37:20.476Z,98804.00
2023-01-09T03:39:46.885Z,98806.47
2023-01-09T03:42:13.258Z,98809.06
2023-01-09T03:44:39.631Z,98814.81
2023-01-09T03:47:06.069Z,98823.84
2023-01-09T03:49:32.452Z,98818.00
2023-01-09T03:51:58.837Z,98831.50
2023-01-09T03:54:25.270Z,98835.03
2023-01-09T03:56:51.757Z,98838.59
2023-01-09T03:59:18.578Z,98844.28
2023-01-09T04:01:45.138Z,98846.78
2023-01-09T04:04:11.681Z,98845.78
2023-01-09T04:06:38.118Z,98841.88
2023-01-09T04:09:04.541Z,98848.34
2023-01-09T04:11:30.911Z,98848.34
2023-01-09T04:13:57.289Z,98849.44
2023-01-09T04:16:23.687Z,98849.97
2023-01-09T04:18:50.094Z,98849.59
2023-01-09T04:21:16.512Z,98843.91
2023-01-09T04:23:42.919Z,98852.69
2023-01-09T04:26:09.279Z,98852.88
2023-01-09T04:28:35.640Z,98847.03
2023-01-09T04:31:02.595Z,98849.44
2023-01-09T04:33:29.411Z,98843.84
2023-01-09T04:35:55.961Z,98857.56
2023-01-09T04:38:22.781Z,98859.88
2023-01-09T04:40:49.446Z,98861.91
2023-01-09T04:43:15.793Z,98866.38
2023-01-09T04:45:42.187Z,98865.28
2023-01-09T04:48:08.585Z,98874.25
2023-01-09T04:50:35.038Z,98862.19
2023-01-09T04:53:01.654Z,98874.44
2023-01-09T04:55:28.037Z,98867.50
2023-01-09T04:57:54.413Z,98874.22
2023-01-09T05:00:20.845Z,98878.56
2023-01-09T05:02:47.216Z,98880.88
2023-01-09T05:05:13.657Z,98872.97
2023-01-09T05:07:40.451Z,98874.44
2023-01-09T05:10:08.076Z,98874.59
2023-01-09T05:12:37.279Z,98892.34
2023-01-09T05:15:04.839Z,98890.06
2023-01-09T05:17:32.234Z,98887.72
2023-01-09T05:19:58.663Z,98898.38
2023-01-09T05:22:25.019Z,98900.16
2023-01-09T05:24:51.414Z,98902.59
2023-01-09T05:27:17.792Z,98911.03
2023-01-09T05:29:44.280Z,98905.72
2023-01-09T05:32:10.750Z,98909.75
2023-01-09T05:34:37.199Z,98907.63
2023-01-09T05:37:03.572Z,98916.22
2023-01-09T05:39:30.043Z,98912.25
2023-01-09T05:41:56.444Z,98913.84
2023-01-09T05:44:22.820Z,98909.88
2023-01-09T05:46:49.205Z,98902.66
2023-01-09T05:49:15.806Z,98907.09
2023-01-09T05:51:42.161Z,98905.53
2023-01-09T05:54:08.544Z,98910.59
2023-01-09T05:56:34.954Z,98908.47
2023-01-09T05:59:01.405Z,98913.34
2023-01-09T06:01:27.915Z,98911.22
2023-01-09T06:03:54.386Z,98920.72
2023-01-09T06:06:20.784Z,98914.19
2023-01-09T06:08:47.161Z,98908.44
2023-01-09T06:11:13.549Z,98909.63
2023-01-09T06:13:39.925Z,98907.22
2023-01-09T06:16:07.094Z,98908.72
2023-01-09T06:18:33.561Z,98911.41
2023-01-09T06:20:59.968Z,98916.03
2023-01-09T06:23:26.339Z,98916.91
2023-01-09T06:25:52.735Z,98910.59
2023-01-09T06:28:19.090Z,98916.13
2023-01-09T06:30:45.465Z,98918.69
2023-01-09T06:33:11.827Z,98914.94
2023-01-09T06:35:38.206Z,98918.28
2023-01-09T06:38:05.150Z,98924.44
2023-01-09T06:40:31.563Z,98920.09
2023-01-09T06:42:57.925Z,98918.69
2023-01-09T06:45:24.451Z,98919.66
2023-01-09T06:47:50.847Z,98922.03
2023-01-09T06:50:17.614Z,98914.72
2023-01-09T06:52:44.015Z,98919.88
2023-01-09T06:55:10.411Z,98925.50
2023-01-09T06:57:36.918Z,98925.41
2023-01-09T07:00:03.863Z,98927.00
2023-01-09T07:02:30.323Z,98927.53
2023-01-09T07:04:56.747Z,98925.84
2023-01-09T07:07:23.405Z,98926.56
2023-01-09T07:09:49.982Z,98926.56
2023-01-09T07:12:16.497Z,98931.31
2023-01-09T07:14:43.097Z,98933.38
2023-01-09T07:17:12.367Z,98918.66
2023-01-09T07:19:38.816Z,98929.19
2023-01-09T07:22:06.211Z,98928.25
2023-01-09T07:24:32.707Z,98926.97
2023-01-09T07:26:59.092Z,98933.19
2023-01-09T07:29:25.484Z,98925.00
2023-01-09T07:31:51.894Z,98924.59
2023-01-09T07:34:18.357Z,98933.59
2023-01-09T07:36:46.686Z,98944.88
2023-01-09T07:39:13.559Z,98941.59
2023-01-09T07:41:40.454Z,98937.84
2023-01-09T07:44:08.988Z,98934.69
2023-01-09T07:46:36.741Z,98937.44
2023-01-09T07:49:03.267Z,98936.84
2023-01-09T07:51:29.685Z,98937.81
2023-01-09T07:53:56.146Z,98940.25
2023-01-09T07:56:22.543Z,98934.94
2023-01-09T07:58:48.893Z,98942.94
2023-01-09T08:01:15.843Z,98940.25
2023-01-09T08:03:42.263Z,98948.09
2023-01-09T08:06:10.148Z,98943.41
2023-01-09T08:08:36.540Z,98947.25
2023-01-09T08:11:02.930Z,98947.38
2023-01-09T08:13:30.112Z,98957.25
2023-01-09T08:15:56.582Z,98952.38
2023-01-09T08:18:22.993Z,98952.19
2023-01-09T08:20:49.415Z,98951.72
2023-01-09T08:23:15.835Z,98956.03
2023-01-09T08:25:42.198Z,98949.88
2023-01-09T08:28:09.296Z,98957.22
2023-01-09T08:30:36.285Z,98954.22
2023-01-09T08:33:02.646Z,98948.63
2023-01-09T08:35:29.112Z,98955.13
2023-01-09T08:37:55.510Z,98948.94
2023-01-09T08:40:21.912Z,98946.97
2023-01-09T08:43:06.835Z,98947.31
2023-01-09T08:45:51.470Z,98943.44
2023-01-09T08:48:17.885Z,98943.06
2023-01-09T08:50:44.540Z,98948.75
2023-01-09T08:53:11.520Z,98945.91
2023-01-09T08:55:37.978Z,98964.00
2023-01-09T08:58:04.388Z,98944.41
2023-01-09T09:00:30.747Z,98950.16
2023-01-09T09:02:59.217Z,98954.94
2023-01-09T09:05:27.278Z,98948.94
2023-01-09T09:07:55.658Z,98965.06
2023-01-09T09:10:28.235Z,98958.31
2023-01-09T09:12:56.662Z,98958.31
2023-01-09T09:15:24.145Z,98953.16
2023-01-09T09:17:53.546Z,98956.72
2023-01-09T09:20:21.244Z,98961.97
2023-01-09T09:22:48.108Z,98959.66
2023-01-09T09:25:15.442Z,98974.84
2023-01-09T09:27:42.174Z,98969.84
2023-01-09T09:30:09.691Z,98979.25
2023-01-09T09:32:36.214Z,98980.47
2023-01-09T09:35:02.797Z,98985.63
2023-01-09T09:37:29.184Z,98998.19
2023-01-09T09:39:56.788Z,98996.59
2023-01-09T09:43:03.715Z,98996.91
2023-01-09T09:45:58.620Z,99005.44
2023-01-09T09:48:35.985Z,99014.38
2023-01-09T09:51:34.706Z,99021.69
2023-01-09T09:54:06.205Z,99016.53
2023-01-09T09:56:38.167Z,99018.84
2023-01-09T09:59:09.167Z,99022.28
2023-01-09T10:01:46.383Z,99033.16
2023-01-09T10:04:15.453Z,99034.03
2023-01-09T10:06:48.686Z,99035.72
2023-01-09T10:09:26.152Z,99045.59
2023-01-09T10:12:04.038Z,99043.53
2023-01-09T10:14:30.838Z,99036.16
2023-01-09T10:17:03.382Z,99040.94
2023-01-09T10:19:49.038Z,99031.16
2023-01-09T10:22:35.435Z,99030.94
2023-01-09T10:25:13.958Z,99031.44
2023-01-09T10:27:53.314Z,99029.19
2023-01-09T10:30:38.237Z,99034.41
2023-01-09T10:33:37.074Z,99037.25
2023-01-09T10:36:22.042Z,99030.44
2023-01-09T10:38:50.940Z,99026.09
2023-01-09T10:41:39.212Z,99028.53
2023-01-09T10:44:20.609Z,99033.47
2023-01-09T10:46:55.441Z,99033.88
2023-01-09T10:49:23.678Z,99035.25
2023-01-09T10:52:02.061Z,99034.63
2023-01-09T10:54:29.037Z,99038.56
2023-01-09T10:56:58.444Z,99046.78
2023-01-09T10:59:25.116Z,99041.22
2023-01-09T11:01:51.573Z,99041.72
2023-01-09T11:04:27.037Z,99030.41
2023-01-09T11:06:58.744Z,99031.66
2023-01-09T11:09:25.114Z,99023.59
2023-01-09T11:11:52.744Z,99018.75
2023-01-09T11:14:32.884Z,99017.22
2023-01-09T11:17:04.009Z,99032.16
2023-01-09T11:19:33.138Z,99021.97
2023-01-09T11:22:08.281Z,99020.63
2023-01-09T11:24:34.950Z,99038.91
2023-01-09T11:27:13.602Z,99005.25
2023-01-09T11:29:41.035Z,99024.88
2023-01-09T11:32:21.194Z,99012.38
2023-01-09T11:34:47.907Z,99022.13
2023-01-09T11:37:25.691Z,99025.41
2023-01-09T11:39:52.459Z,99031.91
2023-01-09T11:42:44.170Z,99020.91
2023-01-09T11:45:21.867Z,99029.06
2023-01-09T11:47:48.260Z,99035.44
2023-01-09T11:50:18.017Z,99027.69
2023-01-09T11:52:44.582Z,99033.53
2023-01-09T11:55:14.246Z,99045.00
2023-01-09T11:57:40.712Z,99031.72
2023-01-09T12:00:20.759Z,99043.97
2023-01-09T12:03:14.233Z,99037.66
2023-01-09T12:05:50.668Z,99035.81
2023-01-09T12:08:46.533Z,99058.44
2023-01-09T12:11:28.445Z,99066.25
2023-01-09T12:14:23.864Z,99051.50
2023-01-09T12:17:07.282Z,99078.34
2023-01-09T12:20:11.308Z,99070.53
2023-01-09T12:23:07.938Z,99075.69
2023-01-09T12:25:37.190Z,99081.97
2023-01-09T12:28:31.159Z,99095.63
2023-01-09T12:31:37.902Z,99096.78
2023-01-09T12:34:36.147Z,99097.94
2023-01-09T12:37:04.698Z,99095.72
2023-01-09T12:39:39.681Z,99092.09
2023-01-09T12:42:24.110Z,99100.88
2023-01-09T12:45:01.541Z,99097.84
2023-01-09T12:47:45.423Z,99111.97
2023-01-09T12:50:39.388Z,99114.28
2023-01-09T12:53:25.739Z,99117.38
2023-01-09T12:56:04.387Z,99122.94
2023-01-09T12:58:41.554Z,99120.38
2023-01-09T13:01:14.468Z,99124.53
2023-01-09T13:03:48.000Z,99124.34
2023-01-09T13:06:17.432Z,99139.81
2023-01-09T13:08:55.595Z,99132.69
2023-01-09T13:11:34.397Z,99142.97
2023-01-09T13:14:10.187Z,99150.66
2023-01-09T13:16:42.005Z,99150.16
2023-01-09T13:19:25.806Z,99150.75
2023-01-09T13:21:53.559Z,99154.31
2023-01-09T13:24:24.977Z,99157.16
2023-01-09T13:26:57.185Z,99167.09
2023-01-09T13:29:23.443Z,99162.94
2023-01-09T13:31:56.059Z,99172.94
2023-01-09T13:34:25.129Z,99179.97
2023-01-09T13:36:53.746Z,99183.16
2023-01-09T13:39:28.520Z,99181.41
2023-01-09T13:42:17.712Z,99185.72
2023-01-09T13:44:44.913Z,99187.31
2023-01-09T13:47:17.544Z,99190.25
2023-01-09T13:49:43.898Z,99191.88
2023-01-09T13:52:36.518Z,99196.84
2023-01-09T13:55:11.831Z,99198.03
2023-01-09T13:57:42.234Z,99202.38
2023-01-09T14:00:14.719Z,99208.41
2023-01-09T14:02:41.240Z,99211.78
2023-01-09T14:05:36.559Z,99217.03
2023-01-09T14:08:12.439Z,99212.47
2023-01-09T14:10:44.901Z,99219.59
2023-01-09T14:13:20.389Z,99228.00
2023-01-09T14:15:49.426Z,99241.38
2023-01-09T14:18:18.711Z,99249.88
2023-01-09T14:20:52.644Z,99250.09
2023-01-09T14:23:45.551Z,99254.66
2023-01-09T14:26:17.979Z,99270.69
2023-01-09T14:28:44.721Z,99277.81
2023-01-09T14:31:27.553Z,99276.53
2023-01-09T14:34:34.205Z,99278.50
2023-01-09T14:37:02.220Z,99285.41
2023-01-09T14:39:31.526Z,99291.03
2023-01-09T14:42:06.354Z,99293.63
2023-01-09T14:44:46.880Z,99292.94
2023-01-09T14:47:17.250Z,99299.00
2023-01-09T14:49:47.073Z,99311.13
2023-01-09T14:52:21.356Z,99310.66
2023-01-09T14:54:48.567Z,99327.16
2023-01-09T14:57:25.335Z,99327.84
2023-01-09T15:00:06.037Z,99337.78
2023-01-09T15:02:35.442Z,99352.31
2023-01-09T15:05:10.743Z,99359.34
2023-01-09T15:07:45.015Z,99367.84
2023-01-09T15:10:21.109Z,99378.50
2023-01-09T15:12:49.329Z,99381.47
2023-01-09T15:15:16.812Z,99397.91
2023-01-09T15:17:45.591Z,99399.16
2023-01-09T15:20:22.060Z,99408.19
2023-01-09T15:22:54.609Z,99416.25
2023-01-09T15:25:33.926Z,99411.25
2023-01-09T15:28:23.188Z,99421.19
2023-01-09T15:30:55.349Z,99434.25
2023-01-09T15:33:21.612Z,99428.84
2023-01-09T15:35:50.109Z,99426.16
2023-01-09T15:38:21.002Z,99424.69
2023-01-09T15:40:55.177Z,99433.09
2023-01-09T15:43:21.725Z,99441.94
2023-01-09T15:45:48.444Z,99450.81
2023-01-09T15:48:29.192Z,99454.19
2023-01-09T15:50:58.375Z,99458.88
2023-01-09T15:53:27.114Z,99467.06
2023-01-09T15:56:02.548Z,99468.75
2023-01-09T15:58:32.939Z,99473.44
2023-01-09T16:01:01.496Z,99491.13
2023-01-09T16:03:28.742Z,99493.34
2023-01-09T16:05:57.940Z,99496.94
2023-01-09T16:08:29.172Z,99501.06
2023-01-09T16:10:58.417Z,99505.78
2023-01-09T16:13:26.139Z,99520.63
2023-01-09T16:15:53.043Z,99539.50
2023-01-09T16:18:22.311Z,99535.94
2023-01-09T16:20:49.292Z,99537.50
2023-01-09T16:23:21.544Z,99543.22
2023-01-09T16:25:47.968Z,99537.84
2023-01-09T16:28:26.630Z,99541.41
2023-01-09T16:30:56.012Z,99554.94
2023-01-09T16:33:24.818Z,99552.34
2023-01-09T16:35:51.627Z,99556.81
2023-01-09T16:38:18.110Z,99562.84
2023-01-09T16:41:25.507Z,99584.53
2023-01-09T16:43:52.214Z,99578.25
2023-01-09T16:46:20.436Z,99574.09
2023-01-09T16:48:47.593Z,99588.56
2023-01-09T16:51:16.623Z,99587.34
2023-01-09T16:53:43.616Z,99598.38
2023-01-09T16:56:15.087Z,99591.22
2023-01-09T16:58:41.582Z,99607.31
2023-01-09T17:01:09.801Z,99603.38
2023-01-09T17:03:36.475Z,99607.66
2023-01-09T17:06:04.031Z,99606.44
2023-01-09T17:08:32.707Z,99612.47
2023-01-09T17:10:59.135Z,99621.06
2023-01-09T17:13:25.946Z,99619.72
2023-01-09T17:15:53.776Z,99622.06
2023-01-09T17:18:24.979Z,99616.28
2023-01-09T17:20:53.233Z,99618.50
2023-01-09T17:23:20.929Z,99616.50
2023-01-09T17:26:06.429Z,99621.84
2023-01-09T17:28:32.824Z,99624.31
2023-01-09T17:31:00.488Z,99634.59
2023-01-09T17:33:27.369Z,99629.22
2023-01-09T17:35:53.841Z,99629.13
2023-01-09T17:38:20.303Z,99639.75
2023-01-09T17:40:46.731Z,99647.88
2023-01-09T17:43:13.382Z,99641.75
2023-01-09T17:45:41.118Z,99647.00
2023-01-09T17:48:14.825Z,99663.66
2023-01-09T17:50:41.176Z,99667.88
2023-01-09T17:53:07.661Z,99677.94
2023-01-09T17:55:34.959Z,99680.41
2023-01-09T17:58:01.388Z,99692.59
2023-01-09T18:00:30.446Z,99697.47
2023-01-09T18:02:57.288Z,99707.91
2023-01-09T18:05:25.038Z,99707.22
2023-01-09T18:07:51.579Z,99708.72
2023-01-09T18:10:19.984Z,99719.16
2023-01-09T18:12:54.165Z,99730.81
2023-01-09T18:15:23.776Z,99729.31
2023-01-09T18:17:51.567Z,99731.31
2023-01-09T18:20:18.319Z,99736.13
2023-01-09T18:22:44.791Z,99737.72
2023-01-09T18:25:11.214Z,99738.50
2023-01-09T18:27:38.023Z,99734.41
2023-01-09T18:30:06.499Z,99751.34
2023-01-09T18:32:33.490Z,99766.53
2023-01-09T18:34:59.865Z,99757.34
2023-01-09T18:37:26.337Z,99753.63
2023-01-09T18:39:52.727Z,99764.81
2023-01-09T18:42:19.162Z,99757.94
2023-01-09T18:44:45.542Z,99766.91
2023-01-09T18:47:11.970Z,99774.66
2023-01-09T18:49:38.402Z,99772.88
2023-01-09T18:52:07.398Z,99784.13
2023-01-09T18:54:33.988Z,99778.75
2023-01-09T18:57:00.370Z,99783.38
2023-01-09T18:59:26.781Z,99789.28
2023-01-09T19:01:53.180Z,99792.50
2023-01-09T19:04:19.700Z,99800.09
2023-01-09T19:06:46.126Z,99807.03
2023-01-09T19:09:12.637Z,99813.97
2023-01-09T19:11:39.200Z,99824.25
2023-01-09T19:14:05.593Z,99823.59
2023-01-09T19:16:32.054Z,99831.31
2023-01-09T19:18:59.003Z,99836.53
2023-01-09T19:21:26.757Z,99842.56
2023-01-09T19:23:53.164Z,99840.91
2023-01-09T19:26:21.660Z,99845.75
2023-01-09T19:28:48.168Z,99856.31
2023-01-09T19:31:14.793Z,99855.50
2023-01-09T19:33:41.270Z,99863.41
2023-01-09T19:36:08.190Z,99861.72
2023-01-09T19:38:34.562Z,99870.34
2023-01-09T19:41:17.594Z,99871.75
2023-01-09T19:43:43.992Z,99878.09
2023-01-09T19:46:13.713Z,99882.59
2023-01-09T19:48:41.576Z,99872.50
2023-01-09T19:51:08.788Z,99876.44
2023-01-09T19:53:35.644Z,99880.41
2023-01-09T19:56:16.664Z,99884.28
2023-01-09T19:58:48.408Z,99889.19
2023-01-09T20:01:16.853Z,99897.44
2023-01-09T20:03:44.778Z,99898.63
2023-01-09T20:06:14.231Z,99904.28
2023-01-09T20:08:41.904Z,99909.22
2023-01-09T20:11:08.474Z,99911.44
2023-01-09T20:13:35.048Z,99914.78
2023-01-09T20:16:02.248Z,99921.44
2023-01-09T20:18:29.509Z,99923.63
2023-01-09T20:20:58.929Z,99927.97
2023-01-09T20:23:32.275Z,99934.28
2023-01-09T20:26:00.030Z,99940.06
2023-01-09T20:28:27.294Z,99945.25
2023-01-09T20:30:53.812Z,99945.72
2023-01-09T20:33:20.935Z,99950.94
2023-01-09T20:35:47.399Z,99959.19
2023-01-09T20:38:13.897Z,99965.63
2023-01-09T20:40:43.755Z,99970.19
2023-01-09T20:43:12.001Z,99973.03
2023-01-09T20:45:39.256Z,99977.28
2023-01-09T20:48:05.923Z,99977.91
2023-01-09T20:50:33.046Z,99986.16
2023-01-09T20:52:59.493Z,99989.22
2023-01-09T20:55:25.944Z,99997.97
2023-01-09T20:57:52.389Z,100002.06
2023-01-09T21:00:18.889Z,100000.78
2023-01-09T21:02:45.232Z,100002.56
2023-01-09T21:05:11.602Z,100011.84
2023-01-09T21:07:37.966Z,100018.91
2023-01-09T21:10:04.802Z,100021.31
2023-01-09T21:12:37.652Z,100030.72
2023-01-09T21:15:06.289Z,100038.28
2023-01-09T21:17:37.065Z,100043.19
2023-01-09T21:20:05.918Z,100050.91
2023-01-09T21:22:33.553Z,100057.59
2023-01-09T21:24:59.951Z,100060.19
2023-01-09T21:27:35.830Z,100071.19
2023-01-09T21:30:03.973Z,100072.09
2023-01-09T21:32:32.587Z,100076.06
2023-01-09T21:35:05.102Z,100087.63
2023-01-09T21:37:33.409Z,100090.47
2023-01-09T21:40:00.625Z,100091.19
2023-01-09T21:42:53.849Z,100103.69
2023-01-09T21:45:38.699Z,100108.19
2023-01-09T21:48:06.043Z,100112.66
2023-01-09T21:50:33.737Z,100123.47
2023-01-09T21:53:00.272Z,100126.66
2023-01-09T21:55:26.748Z,100128.47
2023-01-09T21:57:56.499Z,100135.41
2023-01-09T22:00:23.433Z,100142.34
2023-01-09T22:02:50.073Z,100142.88
2023-01-09T22:05:16.459Z,100141.31
2023-01-09T22:07:42.830Z,100148.38
2023-01-09T22:10:09.690Z,100152.25
2023-01-09T22:12:36.043Z,100149.69
2023-01-09T22:15:02.529Z,100157.78
2023-01-09T22:17:29.075Z,100166.34
2023-01-09T22:19:55.423Z,100163.78
2023-01-09T22:22:21.782Z,100172.16
2023-01-09T22:24:49.731Z,100170.84
2023-01-09T22:27:16.090Z,100180.72
2023-01-09T22:29:42.549Z,100190.38
2023-01-09T22:32:09.040Z,100193.72
2023-01-09T22:34:35.424Z,100199.59
2023-01-09T22:37:02.097Z,100202.69
2023-01-09T22:39:28.501Z,100208.88
2023-01-09T22:41:55.208Z,100209.25
2023-01-09T22:44:21.741Z,100214.28
2023-01-09T22:46:48.267Z,100227.63
2023-01-09T22:49:14.659Z,100226.59
2023-01-09T22:51:41.069Z,100226.84
2023-01-09T22:54:07.470Z,100232.38
2023-01-09T22:56:33.915Z,100239.28
2023-01-09T22:59:00.999Z,100236.59
2023-01-09T23:01:27.610Z,100236.09
2023-01-09T23:03:53.983Z,100237.53
2023-01-09T23:06:21.715Z,100247.66
2023-01-09T23:08:53.162Z,100259.09
2023-01-09T23:11:47.782Z,100265.88
2023-01-09T23:14:14.157Z,100265.50
2023-01-09T23:16:41.130Z,100276.31
2023-01-09T23:19:16.975Z,100284.00
2023-01-09T23:21:44.313Z,100299.28
2023-01-09T23:24:11.542Z,100291.34
2023-01-09T23:26:40.801Z,100298.25
2023-01-09T23:29:07.763Z,100304.94
2023-01-09T23:31:34.586Z,100317.47
2023-01-09T23:34:01.057Z,100317.16
2023-01-09T23:36:27.512Z,100329.56
2023-01-09T23:38:53.872Z,100333.69
2023-01-09T23:41:22.261Z,100340.41
2023-01-09T23:43:48.623Z,100344.84
2023-01-09T23:46:15.034Z,100353.22
2023-01-09T23:48:41.444Z,100347.34
2023-01-09T23:51:07.820Z,100349.91
2023-01-09T23:53:34.225Z,100361.75
2023-01-09T23:56:01.440Z,100361.59
2023-01-09T23:58:27.822Z,100368.91
